createdAt,value
2019-04-21T00:02:09.407Z,23.23
2019-04-21T00:04:53.173Z,27.67
2019-04-21T00:07:31.870Z,23.70
2019-04-21T00:10:06.444Z,27.10
2019-04-21T00:12:34.467Z,24.83
2019-04-21T00:15:03.551Z,27.07
2019-04-21T00:17:24.869Z,33.37
2019-04-21T00:20:09.207Z,32.83
2019-04-21T00:22:44.024Z,32.47
2019-04-21T00:25:21.338Z,31.07
2019-04-21T00:30:39.874Z,33.23
2019-04-21T00:32:59.968Z,36.07
2019-04-21T00:35:27.474Z,36.00
2019-04-21T00:38:18.365Z,36.40
2019-04-21T00:40:56.636Z,29.03
2019-04-21T00:43:19.589Z,30.60
2019-04-21T00:45:44.667Z,30.20
2019-04-21T00:48:32.945Z,32.23
2019-04-21T00:51:16.407Z,37.17
2019-04-21T00:53:45.548Z,41.10
2019-04-21T00:56:18.277Z,34.03
2019-04-21T00:58:47.487Z,35.17
2019-04-21T01:01:15.230Z,32.23
2019-04-21T01:03:51.991Z,38.03
2019-04-21T01:06:24.432Z,33.40
2019-04-21T01:08:46.816Z,34.10
2019-04-21T01:14:05.839Z,33.57
2019-04-21T01:16:33.158Z,29.20
2019-04-21T01:19:02.267Z,34.77
2019-04-21T01:21:14.672Z,32.60
2019-04-21T01:23:46.479Z,41.30
2019-04-21T01:26:31.188Z,44.00
2019-04-21T01:29:07.033Z,38.33
2019-04-21T01:31:42.154Z,36.17
2019-04-21T01:34:14.953Z,41.13
2019-04-21T01:36:45.826Z,42.13
2019-04-21T01:39:21.317Z,41.93
2019-04-21T01:41:57.587Z,35.80
2019-04-21T01:46:58.443Z,38.33
2019-04-21T01:49:26.378Z,38.33
2019-04-21T01:52:20.534Z,43.30
2019-04-21T01:55:14.036Z,39.27
2019-04-21T01:58:15.312Z,37.67
2019-04-21T02:00:51.964Z,34.77
2019-04-21T02:03:48.712Z,36.57
2019-04-21T02:06:15.013Z,35.20
2019-04-21T02:08:34.598Z,32.43
2019-04-21T02:11:11.273Z,34.33
2019-04-21T02:13:50.213Z,36.40
2019-04-21T02:16:12.465Z,34.00
2019-04-21T02:18:45.344Z,31.50
2019-04-21T02:21:10.868Z,32.97
2019-04-21T02:23:54.355Z,31.57
2019-04-21T02:26:23.829Z,26.87
2019-04-21T02:29:03.306Z,27.97
2019-04-21T02:31:39.658Z,28.43
2019-04-21T02:34:11.350Z,24.43
2019-04-21T02:37:05.428Z,26.00
2019-04-21T02:41:51.706Z,23.70
2019-04-21T02:44:16.765Z,25.13
2019-04-21T02:46:46.294Z,27.03
2019-04-21T02:49:45.183Z,26.60
2019-04-21T02:52:01.244Z,23.80
2019-04-21T02:57:01.306Z,27.53
2019-04-21T02:59:42.289Z,24.37
2019-04-21T03:02:33.547Z,27.83
2019-04-21T03:08:25.667Z,27.20
2019-04-21T03:10:49.974Z,31.63
2019-04-21T03:20:50.992Z,30.87
2019-04-21T03:26:03.488Z,29.47
2019-04-21T03:28:33.900Z,28.53
2019-04-21T03:31:25.253Z,28.10
2019-04-21T03:36:32.786Z,24.90
2019-04-21T03:38:37.703Z,26.90
2019-04-21T03:41:10.717Z,27.03
2019-04-21T03:43:44.570Z,28.90
2019-04-21T03:46:19.473Z,27.27
2019-04-21T03:48:51.698Z,25.43
2019-04-21T03:53:48.120Z,30.60
2019-04-21T03:56:42.443Z,30.30
2019-04-21T03:58:59.832Z,29.87
2019-04-21T04:02:08.743Z,26.83
2019-04-21T04:04:49.185Z,25.87
2019-04-21T04:07:45.921Z,28.57
2019-04-21T04:10:08.347Z,26.47
2019-04-21T04:12:40.847Z,29.47
2019-04-21T04:15:15.783Z,28.17
2019-04-21T04:17:40.702Z,27.77
2019-04-21T04:20:22.477Z,28.00
2019-04-21T04:25:20.867Z,27.97
2019-04-21T04:27:59.756Z,31.43
2019-04-21T04:32:59.385Z,27.53
2019-04-21T04:35:35.356Z,29.00
2019-04-21T04:38:03.362Z,29.70
2019-04-21T04:40:44.869Z,28.00
2019-04-21T04:43:19.347Z,28.40
2019-04-21T04:45:50.658Z,27.77
2019-04-21T04:48:23.724Z,26.10
2019-04-21T04:50:57.052Z,28.50
2019-04-21T04:53:38.863Z,27.07
2019-04-21T04:55:54.711Z,29.03
2019-04-21T04:58:56.272Z,27.53
2019-04-21T05:01:21.447Z,28.27
2019-04-21T05:03:47.380Z,25.77
2019-04-21T05:16:44.635Z,28.50
2019-04-21T05:19:10.179Z,28.87
2019-04-21T05:21:34.262Z,27.53
2019-04-21T05:23:56.971Z,28.07
2019-04-21T05:26:22.075Z,25.73
2019-04-21T05:28:55.541Z,27.57
2019-04-21T05:31:56.942Z,27.70
2019-04-21T05:34:42.662Z,27.60
2019-04-21T05:37:21.959Z,28.17
2019-04-21T05:39:51.108Z,26.67
2019-04-21T05:42:18.731Z,24.20
2019-04-21T05:47:39.625Z,30.30
2019-04-21T05:50:13.389Z,26.90
2019-04-21T05:52:53.502Z,26.70
2019-04-21T05:58:03.646Z,28.20
2019-04-21T06:00:52.894Z,28.10
2019-04-21T06:03:10.103Z,33.67
2019-04-21T06:05:47.333Z,27.83
2019-04-21T06:08:13.467Z,29.70
2019-04-21T06:10:50.829Z,28.77
2019-04-21T06:13:31.533Z,29.10
2019-04-21T06:15:56.961Z,27.03
2019-04-21T06:18:32.481Z,29.67
2019-04-21T06:20:54.606Z,33.07
2019-04-21T06:23:24.095Z,30.47
2019-04-21T06:26:08.733Z,28.00
2019-04-21T06:28:38.018Z,25.20
2019-04-21T06:31:31.771Z,27.80
2019-04-21T06:36:31.520Z,27.23
2019-04-21T06:39:06.405Z,28.53
2019-04-21T06:44:16.555Z,28.47
2019-04-21T06:47:13.900Z,31.77
2019-04-21T06:49:17.342Z,31.47
2019-04-21T06:51:57.671Z,36.07
2019-04-21T06:54:32.364Z,35.20
2019-04-21T06:56:58.455Z,33.33
2019-04-21T06:59:26.552Z,30.97
2019-04-21T07:04:39.551Z,31.47
2019-04-21T07:07:05.294Z,31.27
2019-04-21T07:09:36.126Z,28.43
2019-04-21T07:12:06.366Z,29.60
2019-04-21T07:15:02.005Z,30.60
2019-04-21T07:17:17.913Z,26.70
2019-04-21T07:19:49.938Z,30.60
2019-04-21T07:22:24.476Z,26.77
2019-04-21T07:24:54.064Z,27.33
2019-04-21T07:27:28.960Z,28.27
2019-04-21T07:29:58.499Z,32.20
2019-04-21T07:32:31.273Z,29.97
2019-04-21T07:35:04.783Z,29.40
2019-04-21T07:37:36.622Z,30.70
2019-04-21T07:40:01.649Z,27.60
2019-04-21T07:42:32.852Z,30.97
2019-04-21T07:45:03.357Z,30.03
2019-04-21T07:47:55.115Z,27.83
2019-04-21T07:50:35.196Z,29.97
2019-04-21T07:53:14.772Z,30.53
2019-04-21T07:58:14.585Z,28.37
2019-04-21T08:00:51.441Z,27.03
2019-04-21T08:03:21.954Z,27.07
2019-04-21T08:08:23.407Z,30.07
2019-04-21T08:10:57.347Z,26.63
2019-04-21T08:13:34.561Z,26.97
2019-04-21T08:15:59.539Z,29.10
2019-04-21T08:18:35.360Z,28.10
2019-04-21T08:21:07.202Z,28.73
2019-04-21T08:23:37.100Z,25.40
2019-04-21T08:26:07.718Z,26.63
2019-04-21T08:28:45.757Z,28.20
2019-04-21T08:31:14.462Z,28.00
2019-04-21T08:36:24.648Z,26.93
2019-04-21T08:38:53.982Z,27.47
2019-04-21T08:41:36.144Z,28.40
2019-04-21T08:43:51.577Z,26.63
2019-04-21T08:46:46.064Z,28.20
2019-04-21T08:49:04.278Z,26.00
2019-04-21T08:51:33.963Z,27.97
2019-04-21T08:54:09.546Z,29.17
2019-04-21T08:57:06.386Z,31.63
2019-04-21T08:59:51.818Z,27.37
2019-04-21T09:02:35.125Z,30.20
2019-04-21T09:05:09.562Z,28.27
2019-04-21T09:07:41.707Z,25.33
2019-04-21T09:10:09.361Z,25.50
2019-04-21T09:12:43.251Z,23.60
2019-04-21T09:15:13.866Z,25.33
2019-04-21T09:17:43.783Z,26.83
2019-04-21T09:20:26.612Z,22.03
2019-04-21T09:22:54.448Z,20.90
2019-04-21T09:25:26.959Z,22.03
2019-04-21T09:27:55.288Z,19.43
2019-04-21T09:30:13.010Z,18.57
2019-04-21T09:32:44.596Z,18.77
2019-04-21T09:35:17.365Z,18.57
2019-04-21T09:37:53.452Z,15.53
2019-04-21T09:40:29.107Z,14.83
2019-04-21T09:42:58.741Z,17.53
2019-04-21T09:45:24.442Z,16.80
2019-04-21T09:48:02.957Z,16.63
2019-04-21T09:50:29.481Z,19.93
2019-04-21T09:53:10.258Z,15.93
2019-04-21T09:55:42.195Z,17.13
2019-04-21T09:58:13.546Z,14.37
2019-04-21T10:00:46.150Z,15.07
2019-04-21T10:03:12.463Z,14.63
2019-04-21T10:05:41.669Z,16.17
2019-04-21T10:08:12.541Z,16.60
2019-04-21T10:10:44.227Z,21.17
2019-04-21T10:13:15.094Z,11.40
2019-04-21T10:15:48.530Z,16.20
2019-04-21T10:18:21.531Z,12.80
2019-04-21T10:20:52.108Z,13.03
2019-04-21T10:23:23.308Z,8.37
2019-04-21T10:25:54.675Z,9.67
2019-04-21T10:28:26.910Z,11.77
2019-04-21T10:30:58.474Z,14.43
2019-04-21T10:33:30.255Z,12.93
2019-04-21T10:36:01.366Z,13.43
2019-04-21T10:38:38.953Z,15.73
2019-04-21T10:41:05.381Z,16.47
2019-04-21T10:43:37.214Z,13.63
2019-04-21T10:46:08.774Z,13.37
2019-04-21T10:48:39.475Z,14.70
2019-04-21T10:51:11.293Z,18.27
2019-04-21T10:53:43.165Z,14.37
2019-04-21T10:56:21.894Z,15.37
2019-04-21T10:58:47.748Z,15.43
2019-04-21T11:01:23.423Z,14.97
2019-04-21T11:04:20.230Z,12.33
2019-04-21T11:06:46.320Z,15.33
2019-04-21T11:09:17.865Z,15.20
2019-04-21T11:11:50.299Z,17.17
2019-04-21T11:14:21.043Z,19.23
2019-04-21T11:16:53.396Z,20.87
2019-04-21T11:22:14.820Z,16.10
2019-04-21T11:24:45.293Z,18.07
2019-04-21T11:27:16.984Z,20.17
2019-04-21T11:29:47.584Z,17.40
2019-04-21T11:32:19.080Z,17.17
2019-04-21T11:34:49.687Z,18.23
2019-04-21T11:37:22.006Z,19.10
2019-04-21T11:40:02.693Z,15.10
2019-04-21T11:42:31.600Z,17.53
2019-04-21T11:45:02.140Z,16.37
2019-04-21T11:47:52.202Z,19.07
2019-04-21T11:50:23.267Z,16.70
2019-04-21T11:52:54.844Z,18.13
2019-04-21T11:55:27.429Z,15.53
2019-04-21T11:57:58.342Z,18.50
2019-04-21T12:00:29.486Z,16.80
2019-04-21T12:03:00.047Z,19.90
2019-04-21T12:05:30.590Z,16.40
2019-04-21T12:08:02.012Z,18.53
2019-04-21T12:10:33.367Z,18.80
2019-04-21T12:13:06.176Z,17.10
2019-04-21T12:15:36.800Z,15.30
2019-04-21T12:18:08.325Z,18.30
2019-04-21T12:23:22.689Z,14.77
2019-04-21T12:25:53.296Z,15.17
2019-04-21T12:28:23.936Z,17.57
2019-04-21T12:36:40.020Z,14.23
2019-04-21T12:39:12.814Z,16.73
2019-04-21T12:41:44.568Z,16.67
2019-04-21T12:44:15.182Z,13.43
2019-04-21T12:46:45.749Z,19.17
2019-04-21T12:49:16.284Z,15.70
2019-04-21T12:51:48.057Z,17.47
2019-04-21T12:54:19.661Z,14.00
2019-04-21T12:56:51.695Z,16.60
2019-04-21T12:59:22.292Z,15.40
2019-04-21T13:01:52.886Z,15.93
2019-04-21T13:04:23.870Z,16.00
2019-04-21T13:06:55.468Z,17.90
2019-04-21T13:09:29.193Z,17.93
2019-04-21T13:11:59.374Z,18.12
2019-04-21T13:14:29.992Z,18.20
2019-04-21T13:17:01.385Z,20.10
2019-04-21T13:19:31.980Z,20.60
2019-04-21T13:22:03.774Z,18.47
2019-04-21T13:24:35.749Z,17.27
2019-04-21T13:27:07.467Z,17.50
2019-04-21T13:29:38.708Z,20.10
2019-04-21T13:32:10.613Z,17.75
2019-04-21T13:34:42.107Z,22.07
2019-04-21T13:37:12.741Z,17.83
2019-04-21T13:40:20.434Z,15.45
2019-04-21T13:42:39.980Z,20.72
2019-04-21T13:45:08.077Z,19.02
2019-04-21T13:47:38.848Z,17.20
2019-04-21T13:50:11.162Z,19.90
2019-04-21T13:52:42.708Z,19.10
2019-04-21T13:55:13.905Z,16.05
2019-04-21T13:57:44.577Z,16.55
2019-04-21T14:00:17.110Z,15.40
2019-04-21T14:02:48.995Z,14.13
2019-04-21T14:05:20.298Z,16.57
2019-04-21T14:07:52.228Z,13.88
2019-04-21T14:10:23.879Z,15.98
2019-04-21T14:12:56.340Z,14.85
2019-04-21T14:15:28.320Z,13.75
2019-04-21T14:17:59.021Z,17.32
2019-04-21T14:20:29.545Z,17.30
2019-04-21T14:23:13.506Z,14.65
2019-04-21T14:25:32.327Z,15.83
2019-04-21T14:28:03.970Z,18.50
2019-04-21T14:30:34.682Z,18.23
2019-04-21T14:33:05.181Z,14.80
2019-04-21T14:35:36.711Z,18.95
2019-04-21T14:38:08.906Z,17.17
2019-04-21T14:40:39.454Z,17.92
2019-04-21T14:43:10.144Z,18.40
2019-04-21T14:45:48.713Z,14.50
2019-04-21T14:48:37.040Z,14.45
2019-04-21T14:51:32.966Z,11.75
2019-04-21T14:54:20.865Z,12.75
2019-04-21T14:56:51.427Z,13.60
2019-04-21T15:02:18.091Z,13.90
2019-04-21T15:04:49.292Z,12.33
2019-04-21T15:07:21.223Z,13.58
2019-04-21T15:10:02.486Z,13.98
2019-04-21T15:12:25.808Z,12.98
2019-04-21T15:14:56.379Z,12.80
2019-04-21T15:17:29.101Z,11.90
2019-04-21T15:20:04.616Z,15.08
2019-04-21T15:22:32.293Z,12.98
2019-04-21T15:25:02.967Z,12.33
2019-04-21T15:27:34.799Z,13.05
2019-04-21T15:30:06.949Z,12.13
2019-04-21T15:32:37.500Z,12.60
2019-04-21T15:35:09.190Z,11.33
2019-04-21T15:37:39.921Z,10.58
2019-04-21T15:40:18.196Z,13.62
2019-04-21T15:42:44.308Z,13.80
2019-04-21T15:45:15.153Z,13.45
2019-04-21T15:47:46.163Z,12.30
2019-04-21T15:50:20.134Z,12.28
2019-04-21T15:52:52.125Z,13.60
2019-04-21T15:55:41.150Z,14.35
2019-04-21T15:58:22.785Z,12.65
2019-04-21T16:00:58.575Z,15.13
2019-04-21T16:03:29.232Z,13.85
2019-04-21T16:06:01.288Z,12.63
2019-04-21T16:08:33.255Z,15.50
2019-04-21T16:11:07.149Z,14.43
2019-04-21T16:13:37.237Z,13.35
2019-04-21T16:16:08.532Z,13.72
2019-04-21T16:18:40.346Z,11.78
2019-04-21T16:21:11.748Z,12.33
2019-04-21T16:23:42.543Z,14.30
2019-04-21T16:26:13.120Z,14.60
2019-04-21T16:28:44.882Z,13.88
2019-04-21T16:31:16.377Z,14.35
2019-04-21T16:33:47.179Z,14.63
2019-04-21T16:36:18.467Z,12.10
2019-04-21T16:38:49.764Z,10.75
2019-04-21T16:41:20.383Z,13.85
2019-04-21T16:43:51.394Z,12.60
2019-04-21T16:46:23.148Z,11.88
2019-04-21T16:51:42.785Z,20.65
2019-04-21T16:54:26.547Z,20.82
2019-04-21T16:57:21.821Z,19.75
2019-04-21T16:59:55.083Z,19.35
2019-04-21T17:02:25.575Z,18.05
2019-04-21T17:04:58.152Z,22.35
2019-04-21T17:07:30.283Z,20.48
2019-04-21T17:10:02.413Z,20.20
2019-04-21T17:15:37.283Z,19.75
2019-04-21T17:18:16.227Z,19.75
2019-04-21T17:20:39.448Z,20.37
2019-04-21T17:22:59.731Z,22.42
2019-04-21T17:25:30.297Z,19.02
2019-04-21T17:28:01.618Z,20.95
2019-04-21T17:30:32.599Z,19.62
2019-04-21T17:33:05.574Z,20.40
2019-04-21T17:35:36.196Z,20.12
2019-04-21T17:38:07.910Z,16.67
2019-04-21T17:40:39.875Z,18.32
2019-04-21T17:43:14.151Z,20.23
2019-04-21T17:45:42.716Z,19.57
2019-04-21T17:48:15.939Z,16.25
2019-04-21T17:50:53.730Z,17.48
2019-04-21T17:56:46.384Z,18.35
2019-04-21T17:59:02.891Z,16.15
2019-04-21T18:01:37.325Z,14.90
2019-04-21T18:04:29.262Z,15.13
2019-04-21T18:07:26.399Z,16.77
2019-04-21T18:10:00.914Z,18.62
2019-04-21T18:12:32.244Z,16.35
2019-04-21T18:14:57.944Z,16.97
2019-04-21T18:17:18.539Z,15.98
2019-04-21T18:19:51.773Z,14.37
2019-04-21T18:22:38.618Z,14.90
2019-04-21T18:25:15.363Z,16.87
2019-04-21T18:27:42.714Z,17.30
2019-04-21T18:30:48.860Z,15.17
2019-04-21T18:33:26.640Z,16.73
2019-04-21T18:36:13.455Z,18.03
2019-04-21T18:39:13.985Z,15.97
2019-04-21T18:41:29.270Z,15.77
2019-04-21T18:44:29.850Z,15.00
2019-04-21T18:49:21.483Z,16.30
2019-04-21T18:52:02.558Z,14.47
2019-04-21T18:54:44.408Z,20.33
2019-04-21T18:57:08.265Z,15.37
2019-04-21T18:59:37.194Z,11.17
2019-04-21T19:02:09.595Z,13.10
2019-04-21T19:04:40.520Z,14.13
2019-04-21T19:07:19.953Z,16.43
2019-04-21T19:10:14.461Z,15.50
2019-04-21T19:14:58.102Z,16.07
2019-04-21T19:20:11.764Z,16.13
2019-04-21T19:22:42.034Z,13.03
2019-04-21T19:25:16.497Z,13.33
2019-04-21T19:27:50.275Z,17.27
2019-04-21T19:30:33.611Z,16.07
2019-04-21T19:32:54.490Z,16.30
2019-04-21T19:35:10.742Z,15.97
2019-04-21T19:40:47.095Z,16.60
2019-04-21T19:43:17.077Z,105.53
2019-04-21T19:45:48.455Z,53.90
2019-04-21T19:48:24.024Z,24.47
2019-04-21T19:51:00.485Z,24.73
2019-04-21T19:53:25.449Z,23.97
2019-04-21T19:55:45.758Z,22.93
2019-04-21T19:58:21.979Z,21.90
2019-04-21T20:00:52.419Z,22.87
2019-04-21T20:03:20.997Z,28.17
2019-04-21T20:06:00.964Z,25.87
2019-04-21T20:08:37.500Z,26.43
2019-04-21T20:11:17.818Z,27.33
2019-04-21T20:14:04.242Z,30.00
2019-04-21T20:16:21.274Z,23.50
2019-04-21T20:18:41.724Z,19.73
2019-04-21T20:21:05.961Z,25.73
2019-04-21T20:23:39.520Z,24.57
2019-04-21T20:26:10.419Z,22.33
2019-04-21T20:28:49.296Z,17.33
2019-04-21T20:31:30.116Z,17.27
2019-04-21T20:34:07.871Z,18.97
2019-04-21T20:36:42.908Z,18.93
2019-04-21T20:38:57.945Z,19.30
2019-04-21T20:41:35.319Z,20.87
2019-04-21T20:44:11.866Z,20.37
2019-04-21T20:46:38.627Z,18.77
2019-04-21T20:49:14.451Z,19.57
2019-04-21T20:51:41.789Z,18.97
2019-04-21T20:54:20.826Z,22.33
2019-04-21T20:56:51.501Z,20.73
2019-04-21T20:59:19.720Z,18.77
2019-04-21T21:01:55.387Z,18.27
2019-04-21T21:04:22.451Z,21.13
2019-04-21T21:07:01.972Z,23.30
2019-04-21T21:09:32.597Z,25.13
2019-04-21T21:12:19.668Z,25.30
2019-04-21T21:14:36.335Z,28.23
2019-04-21T21:17:19.649Z,27.57
2019-04-21T21:19:45.730Z,25.73
2019-04-21T21:22:09.809Z,25.37
2019-04-21T21:24:46.394Z,31.73
2019-04-21T21:27:15.576Z,30.67
2019-04-21T21:29:50.192Z,26.63
2019-04-21T21:32:20.754Z,23.90
2019-04-21T21:34:58.240Z,23.77
2019-04-21T21:37:35.069Z,26.50
2019-04-21T21:40:08.258Z,24.40
2019-04-21T21:42:25.321Z,26.60
2019-04-21T21:44:54.525Z,30.47
2019-04-21T21:47:39.371Z,39.77
2019-04-21T21:50:04.760Z,40.73
2019-04-21T21:52:42.365Z,41.17
2019-04-21T21:54:56.343Z,39.70
2019-04-21T21:57:28.308Z,39.80
2019-04-21T22:00:04.744Z,33.17
2019-04-21T22:02:36.045Z,40.83
2019-04-21T22:05:09.444Z,35.77
2019-04-21T22:07:37.102Z,38.07
2019-04-21T22:13:04.019Z,39.43
2019-04-21T22:15:31.960Z,43.57
2019-04-21T22:18:19.346Z,40.27
2019-04-21T22:20:50.292Z,43.87
2019-04-21T22:23:11.433Z,39.33
2019-04-21T22:25:41.691Z,43.00
2019-04-21T22:28:09.812Z,35.97
2019-04-21T22:30:48.249Z,41.50
2019-04-21T22:33:19.898Z,37.87
2019-04-21T22:35:55.207Z,41.47
2019-04-21T22:38:38.592Z,36.50
2019-04-21T22:41:08.849Z,35.47
2019-04-21T22:43:32.391Z,35.57
2019-04-21T22:45:57.380Z,37.67
2019-04-21T22:48:28.944Z,39.17
2019-04-21T22:51:00.597Z,43.53
2019-04-21T22:53:36.816Z,48.10
2019-04-21T22:56:12.621Z,44.30
2019-04-21T23:01:40.551Z,31.93
2019-04-21T23:04:05.290Z,28.47
2019-04-21T23:06:38.908Z,24.23
2019-04-21T23:09:10.878Z,23.13
2019-04-21T23:11:47.018Z,27.23
2019-04-21T23:14:15.774Z,27.07
2019-04-21T23:19:46.012Z,25.80
2019-04-21T23:22:27.928Z,26.47
2019-04-21T23:24:57.543Z,24.27
2019-04-21T23:27:29.625Z,27.13
2019-04-21T23:30:06.460Z,27.57
2019-04-21T23:32:30.531Z,29.40
2019-04-21T23:34:49.564Z,29.20
2019-04-21T23:37:24.139Z,28.53
2019-04-21T23:40:02.692Z,28.40
2019-04-21T23:42:31.897Z,26.87
2019-04-21T23:44:59.522Z,28.03
2019-04-21T23:47:44.237Z,28.23
2019-04-21T23:50:15.970Z,24.93
2019-04-21T23:52:35.328Z,27.33
2019-04-21T23:55:07.527Z,29.07
2019-04-21T23:57:43.264Z,25.13
